createdAt,value
2018-09-04T00:01:39.040Z,11.05
2018-09-04T00:04:06.100Z,10.37
2018-09-04T00:06:33.140Z,10.08
2018-09-04T00:09:00.184Z,9.68
2018-09-04T00:11:27.576Z,9.45
2018-09-04T00:13:54.593Z,9.95
2018-09-04T00:16:21.607Z,9.10
2018-09-04T00:18:48.686Z,9.58
2018-09-04T00:21:15.703Z,10.00
2018-09-04T00:23:42.713Z,9.35
2018-09-04T00:26:09.732Z,9.08
2018-09-04T00:28:36.780Z,9.78
2018-09-04T00:31:03.898Z,9.20
2018-09-04T00:33:30.925Z,10.68
2018-09-04T00:35:57.955Z,10.53
2018-09-04T00:38:24.991Z,10.18
2018-09-04T00:40:52.098Z,10.82
2018-09-04T00:43:19.098Z,10.35
2018-09-04T00:45:46.104Z,10.50
2018-09-04T00:48:13.111Z,12.20
2018-09-04T00:50:40.170Z,10.35
2018-09-04T00:53:07.717Z,10.97
2018-09-04T00:55:34.744Z,11.22
2018-09-04T00:58:01.937Z,10.68
2018-09-04T01:00:28.972Z,10.20
2018-09-04T01:02:57.045Z,10.53
2018-09-04T01:05:24.091Z,12.20
2018-09-04T01:07:51.092Z,10.43
2018-09-04T01:10:18.132Z,10.35
2018-09-04T01:12:45.919Z,11.18
2018-09-04T01:15:12.938Z,11.30
2018-09-04T01:17:39.963Z,10.48
2018-09-04T01:20:06.964Z,10.40
2018-09-04T01:22:33.977Z,10.07
2018-09-04T01:25:00.962Z,10.43
2018-09-04T01:27:27.994Z,10.58
2018-09-04T01:29:55.028Z,11.28
2018-09-04T01:32:22.015Z,11.70
2018-09-04T01:34:49.015Z,11.68
2018-09-04T01:37:16.166Z,11.68
2018-09-04T01:39:43.171Z,11.60
2018-09-04T01:42:10.193Z,11.50
2018-09-04T01:44:37.186Z,10.48
2018-09-04T01:47:04.252Z,10.07
2018-09-04T01:49:31.306Z,9.43
2018-09-04T01:51:58.325Z,9.78
2018-09-04T01:54:25.343Z,17.62
2018-09-04T01:56:52.335Z,33.10
2018-09-04T01:59:19.389Z,22.48
2018-09-04T02:01:46.394Z,75.30
2018-09-04T02:04:13.440Z,53.63
2018-09-04T02:06:40.454Z,69.60
2018-09-04T02:09:08.002Z,31.77
2018-09-04T02:11:34.995Z,40.67
2018-09-04T02:14:02.633Z,97.87
2018-09-04T02:16:29.609Z,72.47
2018-09-04T02:18:56.629Z,60.70
2018-09-04T02:21:23.626Z,43.48
2018-09-04T02:23:50.610Z,27.65
2018-09-04T02:26:17.598Z,13.05
2018-09-04T02:28:44.579Z,16.90
2018-09-04T02:31:11.611Z,9.60
2018-09-04T02:33:38.620Z,11.85
2018-09-04T02:36:05.615Z,28.80
2018-09-04T02:38:32.601Z,39.70
2018-09-04T02:40:59.592Z,15.08
2018-09-04T02:43:26.588Z,14.28
2018-09-04T02:45:53.562Z,9.57
2018-09-04T02:48:20.579Z,17.52
2018-09-04T02:50:47.560Z,13.88
2018-09-04T02:53:14.536Z,26.42
2018-09-04T02:55:41.535Z,30.00
2018-09-04T02:58:09.302Z,133.97
2018-09-04T03:00:36.284Z,29.95
2018-09-04T03:03:03.272Z,24.70
2018-09-04T03:05:30.283Z,23.73
2018-09-04T03:07:57.281Z,52.25
2018-09-04T03:10:24.286Z,68.37
2018-09-04T03:12:51.276Z,58.28
2018-09-04T03:15:18.867Z,55.43
2018-09-04T03:17:45.896Z,63.50
2018-09-04T03:20:12.855Z,85.45
2018-09-04T03:22:39.832Z,89.70
2018-09-04T03:25:06.851Z,83.35
2018-09-04T03:27:33.859Z,62.10
2018-09-04T03:30:00.907Z,81.25
2018-09-04T03:32:27.943Z,106.83
2018-09-04T03:34:54.914Z,60.15
2018-09-04T03:37:21.927Z,89.60
2018-09-04T03:39:48.935Z,91.82
2018-09-04T03:42:15.961Z,118.55
2018-09-04T03:44:42.934Z,82.47
2018-09-04T03:47:09.912Z,62.17
2018-09-04T03:49:37.340Z,52.70
2018-09-04T03:52:04.424Z,52.67
2018-09-04T03:54:31.427Z,64.75
2018-09-04T03:56:58.418Z,38.42
2018-09-04T03:59:25.399Z,71.82
2018-09-04T04:01:52.400Z,86.83
2018-09-04T04:04:19.395Z,44.50
2018-09-04T04:06:46.409Z,60.15
2018-09-04T04:09:13.438Z,64.30
2018-09-04T04:11:40.451Z,60.75
2018-09-04T04:14:08.049Z,106.90
2018-09-04T04:16:35.658Z,112.47
2018-09-04T04:19:02.708Z,87.65
2018-09-04T04:21:29.776Z,77.40
2018-09-04T04:23:56.861Z,86.53
2018-09-04T04:26:23.850Z,77.47
2018-09-04T04:28:50.896Z,34.75
2018-09-04T04:31:18.014Z,30.95
2018-09-04T04:33:44.976Z,43.60
2018-09-04T04:36:11.968Z,40.23
2018-09-04T04:38:38.984Z,59.05
2018-09-04T04:41:05.974Z,31.23
2018-09-04T04:43:32.974Z,35.70
2018-09-04T04:45:59.981Z,20.12
2018-09-04T04:48:27.034Z,24.30
2018-09-04T04:50:54.007Z,21.85
2018-09-04T04:53:20.999Z,52.05
2018-09-04T04:55:47.979Z,40.55
2018-09-04T04:58:14.947Z,76.85
2018-09-04T05:00:41.960Z,39.57
2018-09-04T05:03:08.943Z,57.88
2018-09-04T05:05:35.917Z,22.90
2018-09-04T05:08:02.973Z,37.10
2018-09-04T05:10:29.938Z,29.63
2018-09-04T05:12:56.911Z,31.35
2018-09-04T05:15:23.911Z,25.63
2018-09-04T05:17:51.247Z,36.42
2018-09-04T05:20:21.879Z,21.95
2018-09-04T05:22:49.053Z,26.15
2018-09-04T05:25:15.967Z,20.55
2018-09-04T05:27:43.004Z,17.97
2018-09-04T05:30:10.024Z,17.27
2018-09-04T05:32:40.403Z,17.92
2018-09-04T05:35:09.308Z,18.07
2018-09-04T05:37:36.316Z,17.47
2018-09-04T05:40:03.309Z,16.52
2018-09-04T05:42:34.306Z,14.45
2018-09-04T05:45:01.402Z,16.15
2018-09-04T05:47:32.271Z,15.18
2018-09-04T05:49:59.270Z,15.32
2018-09-04T05:52:26.296Z,15.83
2018-09-04T05:54:53.322Z,16.10
2018-09-04T05:57:20.332Z,16.25
2018-09-04T05:59:47.319Z,16.70
2018-09-04T06:02:14.303Z,18.17
2018-09-04T06:04:41.279Z,17.50
2018-09-04T06:07:08.311Z,16.15
2018-09-04T06:09:35.312Z,15.72
2018-09-04T06:12:02.299Z,15.90
2018-09-04T06:14:29.396Z,15.50
2018-09-04T06:16:56.395Z,15.45
2018-09-04T06:19:23.584Z,17.90
2018-09-04T06:21:50.595Z,14.25
2018-09-04T06:24:17.584Z,15.18
2018-09-04T06:26:44.589Z,14.95
2018-09-04T06:29:11.589Z,14.93
2018-09-04T06:31:38.550Z,15.73
2018-09-04T06:34:05.535Z,13.55
2018-09-04T06:36:32.547Z,13.62
2018-09-04T06:38:59.512Z,14.18
2018-09-04T06:41:26.485Z,15.18
2018-09-04T06:43:53.486Z,14.60
2018-09-04T06:46:20.482Z,15.03
2018-09-04T06:48:47.477Z,15.80
2018-09-04T06:51:14.482Z,16.10
2018-09-04T06:53:41.462Z,17.55
2018-09-04T06:56:08.444Z,18.07
2018-09-04T06:58:35.519Z,16.82
2018-09-04T07:01:02.507Z,16.45
2018-09-04T07:03:29.500Z,16.97
2018-09-04T07:05:56.483Z,15.77
2018-09-04T07:08:23.452Z,16.27
2018-09-04T07:10:50.419Z,15.30
2018-09-04T07:13:17.422Z,16.27
2018-09-04T07:15:44.409Z,15.72
2018-09-04T07:18:11.385Z,15.88
2018-09-04T07:20:39.103Z,15.25
2018-09-04T07:23:06.100Z,15.55
2018-09-04T07:25:33.118Z,15.08
2018-09-04T07:28:00.106Z,14.20
2018-09-04T07:30:27.096Z,14.40
2018-09-04T07:32:54.086Z,14.60
2018-09-04T07:35:21.288Z,13.62
2018-09-04T07:37:48.239Z,14.60
2018-09-04T07:40:15.199Z,14.03
2018-09-04T07:42:42.801Z,13.80
2018-09-04T07:45:09.604Z,12.93
2018-09-04T07:47:36.580Z,13.90
2018-09-04T07:50:03.724Z,14.38
2018-09-04T07:52:30.696Z,13.90
2018-09-04T07:54:57.696Z,13.20
2018-09-04T07:57:24.700Z,12.73
2018-09-04T07:59:51.653Z,12.68
2018-09-04T08:02:18.632Z,11.93
2018-09-04T08:04:45.659Z,12.70
2018-09-04T08:07:12.647Z,12.73
2018-09-04T08:09:39.630Z,11.57
2018-09-04T08:12:06.729Z,12.03
2018-09-04T08:14:33.721Z,13.30
2018-09-04T08:17:00.714Z,12.78
2018-09-04T08:19:27.719Z,11.50
2018-09-04T08:21:55.070Z,12.33
2018-09-04T08:24:22.087Z,12.85
2018-09-04T08:26:49.112Z,13.75
2018-09-04T08:29:16.117Z,13.93
2018-09-04T08:31:43.139Z,13.98
2018-09-04T08:34:10.174Z,14.40
2018-09-04T08:36:37.803Z,14.47
2018-09-04T08:39:07.168Z,15.40
2018-09-04T08:41:34.172Z,14.78
2018-09-04T08:44:01.152Z,14.07
2018-09-04T08:46:28.213Z,12.33
2018-09-04T08:48:55.195Z,14.25
2018-09-04T08:51:22.179Z,15.13
2018-09-04T08:53:49.151Z,14.98
2018-09-04T08:56:16.183Z,14.60
2018-09-04T08:58:43.308Z,15.53
2018-09-04T09:01:10.198Z,14.33
2018-09-04T09:03:37.243Z,16.25
2018-09-04T09:06:04.286Z,15.55
2018-09-04T09:08:31.273Z,18.27
2018-09-04T09:10:58.317Z,16.82
2018-09-04T09:13:25.373Z,16.55
2018-09-04T09:15:53.572Z,19.40
2018-09-04T09:18:21.839Z,11.15
2018-09-04T09:20:48.832Z,14.45
2018-09-04T09:23:16.076Z,13.80
2018-09-04T09:25:43.071Z,16.65
2018-09-04T09:28:10.161Z,18.00
2018-09-04T09:30:37.182Z,15.70
2018-09-04T09:33:04.436Z,15.30
2018-09-04T09:35:31.439Z,13.93
2018-09-04T09:37:58.525Z,16.32
2018-09-04T09:40:25.614Z,16.15
2018-09-04T09:42:52.602Z,16.17
2018-09-04T09:45:19.590Z,16.15
2018-09-04T09:47:47.550Z,12.20
2018-09-04T09:50:14.566Z,13.25
2018-09-04T09:52:41.642Z,15.03
2018-09-04T09:55:09.617Z,16.85
2018-09-04T09:57:36.671Z,15.35
2018-09-04T10:00:04.176Z,14.80
2018-09-04T10:02:36.974Z,13.15
2018-09-04T10:05:03.974Z,13.68
2018-09-04T10:07:31.303Z,11.90
2018-09-04T10:09:58.297Z,13.72
2018-09-04T10:12:25.238Z,13.68
2018-09-04T10:14:52.238Z,16.55
2018-09-04T10:17:19.230Z,14.90
2018-09-04T10:19:47.554Z,14.40
2018-09-04T10:22:14.526Z,13.40
2018-09-04T10:24:41.803Z,13.55
2018-09-04T10:27:08.767Z,14.40
2018-09-04T10:29:35.743Z,14.30
2018-09-04T10:32:02.799Z,13.58
2018-09-04T10:34:29.798Z,13.35
2018-09-04T10:36:56.869Z,13.70
2018-09-04T10:39:29.455Z,12.50
2018-09-04T10:41:56.479Z,13.00
2018-09-04T10:44:23.624Z,12.88
2018-09-04T10:46:50.629Z,11.60
2018-09-04T10:49:17.618Z,12.85
2018-09-04T10:51:44.615Z,12.93
2018-09-04T10:54:11.718Z,13.75
2018-09-04T10:56:38.770Z,11.45
2018-09-04T10:59:05.968Z,12.70
2018-09-04T11:01:32.968Z,13.17
2018-09-04T11:03:59.968Z,15.30
2018-09-04T11:06:26.946Z,14.93
2018-09-04T11:08:53.958Z,15.40
2018-09-04T11:11:20.972Z,13.15
2018-09-04T11:13:48.006Z,12.28
2018-09-04T11:16:15.052Z,12.47
2018-09-04T11:18:42.071Z,11.97
2018-09-04T11:21:09.181Z,11.53
2018-09-04T11:23:36.259Z,12.13
2018-09-04T11:26:03.934Z,12.23
2018-09-04T11:28:33.993Z,13.32
2018-09-04T11:31:01.101Z,12.78
2018-09-04T11:33:28.248Z,13.80
2018-09-04T11:35:55.280Z,14.07
2018-09-04T11:38:22.303Z,11.48
2018-09-04T11:40:49.266Z,11.48
2018-09-04T11:43:16.268Z,11.25
2018-09-04T11:45:43.277Z,13.22
2018-09-04T11:48:14.801Z,11.80
2018-09-04T11:50:42.133Z,11.67
2018-09-04T11:53:09.114Z,14.58
2018-09-04T11:55:36.127Z,12.82
2018-09-04T11:58:03.132Z,12.25
2018-09-04T12:00:37.822Z,9.60
2018-09-04T12:03:04.909Z,11.48
2018-09-04T12:05:31.899Z,10.05
2018-09-04T12:07:58.918Z,9.43
2018-09-04T12:10:25.895Z,14.13
2018-09-04T12:12:52.888Z,9.20
2018-09-04T12:15:19.908Z,7.50
2018-09-04T12:17:46.879Z,7.70
2018-09-04T12:20:37.795Z,7.92
2018-09-04T12:23:04.904Z,7.78
2018-09-04T12:25:31.888Z,7.58
2018-09-04T12:28:00.079Z,6.92
2018-09-04T12:30:27.122Z,6.85
2018-09-04T12:32:54.139Z,6.87
2018-09-04T12:35:21.221Z,7.47
2018-09-04T12:37:48.219Z,7.62
2018-09-04T12:40:15.219Z,7.87
2018-09-04T12:42:42.236Z,8.65
2018-09-04T12:45:09.197Z,8.05
2018-09-04T12:47:36.210Z,8.28
2018-09-04T12:50:03.279Z,6.90
2018-09-04T12:52:30.303Z,9.13
2018-09-04T12:54:57.362Z,8.53
2018-09-04T12:57:24.451Z,7.80
2018-09-04T12:59:51.496Z,7.80
2018-09-04T13:02:18.460Z,7.50
2018-09-04T13:04:46.127Z,7.50
2018-09-04T13:07:13.119Z,8.00
2018-09-04T13:09:40.116Z,8.20
2018-09-04T13:12:07.165Z,7.97
2018-09-04T13:14:34.203Z,8.15
2018-09-04T13:17:04.211Z,7.50
2018-09-04T13:19:31.330Z,8.23
2018-09-04T13:21:58.417Z,8.07
2018-09-04T13:24:25.339Z,7.43
2018-09-04T13:26:52.362Z,7.08
2018-09-04T13:29:20.061Z,6.37
2018-09-04T13:31:49.303Z,6.87
2018-09-04T13:34:16.374Z,6.85
2018-09-04T13:36:43.319Z,7.08
2018-09-04T13:39:10.308Z,6.60
2018-09-04T13:41:37.504Z,6.90
2018-09-04T13:44:04.504Z,5.70
2018-09-04T13:46:31.492Z,6.08
2018-09-04T13:48:58.527Z,6.70
2018-09-04T13:51:25.542Z,8.80
2018-09-04T13:53:52.541Z,9.00
2018-09-04T13:56:19.573Z,6.85
2018-09-04T13:58:46.570Z,7.20
2018-09-04T14:01:13.593Z,6.57
2018-09-04T14:03:40.686Z,7.10
2018-09-04T14:06:07.789Z,6.53
2018-09-04T14:08:34.815Z,6.62
2018-09-04T14:11:01.791Z,6.47
2018-09-04T14:13:28.783Z,5.90
2018-09-04T14:15:57.772Z,6.62
2018-09-04T14:18:24.811Z,6.20
2018-09-04T14:20:51.916Z,6.50
2018-09-04T14:23:18.854Z,7.97
2018-09-04T14:25:45.845Z,6.53
2018-09-04T14:28:12.837Z,7.17
2018-09-04T14:30:40.591Z,7.10
2018-09-04T14:33:10.901Z,7.10
2018-09-04T14:35:37.934Z,7.22
2018-09-04T14:38:05.010Z,7.37
2018-09-04T14:40:32.144Z,8.10
2018-09-04T14:42:59.130Z,7.35
2018-09-04T14:45:26.165Z,8.15
2018-09-04T14:47:53.219Z,8.20
2018-09-04T14:50:20.495Z,8.28
2018-09-04T14:52:47.436Z,8.05
2018-09-04T14:55:14.938Z,8.25
2018-09-04T14:57:41.903Z,8.18
2018-09-04T15:00:08.935Z,8.50
2018-09-04T15:02:35.985Z,10.18
2018-09-04T15:05:02.933Z,9.35
2018-09-04T15:07:29.927Z,10.08
2018-09-04T15:09:57.035Z,9.28
2018-09-04T15:12:24.051Z,8.93
2018-09-04T15:14:51.089Z,8.43
2018-09-04T15:17:18.236Z,8.00
2018-09-04T15:19:45.315Z,8.33
2018-09-04T15:22:12.348Z,8.18
2018-09-04T15:24:39.326Z,7.87
2018-09-04T15:27:06.319Z,7.15
2018-09-04T15:29:33.331Z,11.20
2018-09-04T15:32:00.851Z,7.50
2018-09-04T15:34:27.780Z,7.70
2018-09-04T15:36:54.787Z,7.40
2018-09-04T15:39:21.767Z,9.90
2018-09-04T15:41:48.720Z,7.20
2018-09-04T15:44:15.702Z,7.20
2018-09-04T15:46:42.699Z,7.20
2018-09-04T15:49:15.615Z,7.08
2018-09-04T15:51:42.608Z,7.55
2018-09-04T15:54:09.589Z,7.17
2018-09-04T15:56:36.643Z,10.70
2018-09-04T15:59:03.595Z,8.50
2018-09-04T16:01:30.602Z,7.28
2018-09-04T16:03:57.599Z,7.72
2018-09-04T16:06:24.749Z,7.92
2018-09-04T16:08:51.751Z,7.12
2018-09-04T16:11:18.719Z,7.55
2018-09-04T16:13:45.703Z,7.60
2018-09-04T16:16:12.688Z,7.75
2018-09-04T16:18:39.673Z,7.42
2018-09-04T16:21:06.655Z,7.70
2018-09-04T16:23:33.687Z,7.97
2018-09-04T16:26:00.681Z,8.35
2018-09-04T16:28:27.688Z,7.60
2018-09-04T16:30:57.843Z,7.70
2018-09-04T16:33:25.220Z,7.78
2018-09-04T16:35:52.222Z,12.00
2018-09-04T16:38:19.217Z,10.35
2018-09-04T16:40:46.240Z,12.45
2018-09-04T16:43:13.279Z,9.18
2018-09-04T16:45:40.281Z,8.30
2018-09-04T16:48:07.250Z,7.60
2018-09-04T16:50:34.224Z,7.85
2018-09-04T16:53:01.218Z,7.30
2018-09-04T16:55:28.228Z,8.80
2018-09-04T16:57:55.239Z,7.70
2018-09-04T17:00:22.239Z,7.85
2018-09-04T17:02:49.239Z,8.03
2018-09-04T17:05:16.244Z,7.90
2018-09-04T17:07:43.400Z,7.90
2018-09-04T17:10:10.403Z,7.58
2018-09-04T17:12:37.402Z,7.70
2018-09-04T17:15:04.390Z,8.33
2018-09-04T17:17:31.415Z,8.05
2018-09-04T17:19:58.423Z,7.80
2018-09-04T17:22:25.418Z,7.50
2018-09-04T17:24:52.412Z,8.13
2018-09-04T17:27:19.418Z,8.73
2018-09-04T17:29:46.446Z,7.72
2018-09-04T17:32:13.461Z,7.83
2018-09-04T17:34:40.783Z,8.45
2018-09-04T17:37:07.784Z,8.15
2018-09-04T17:39:34.772Z,8.45
2018-09-04T17:42:01.767Z,9.13
2018-09-04T17:44:28.790Z,8.70
2018-09-04T17:46:55.783Z,8.23
2018-09-04T17:49:22.767Z,7.97
2018-09-04T17:51:49.905Z,8.28
2018-09-04T17:54:16.892Z,8.15
2018-09-04T17:56:43.885Z,7.87
2018-09-04T17:59:10.922Z,8.60
2018-09-04T18:01:37.910Z,8.35
2018-09-04T18:04:04.896Z,8.95
2018-09-04T18:06:31.903Z,8.33
2018-09-04T18:08:58.879Z,25.52
2018-09-04T18:11:25.937Z,9.00
2018-09-04T18:13:52.879Z,8.75
2018-09-04T18:16:19.855Z,9.00
2018-09-04T18:18:46.827Z,9.83
2018-09-04T18:21:13.967Z,9.90
2018-09-04T18:23:41.103Z,9.97
2018-09-04T18:26:08.091Z,9.13
2018-09-04T18:28:35.128Z,8.93
2018-09-04T18:31:02.099Z,9.48
2018-09-04T18:33:29.926Z,9.13
2018-09-04T18:35:57.494Z,8.90
2018-09-04T18:38:24.907Z,8.85
2018-09-04T18:40:52.900Z,9.60
2018-09-04T18:43:20.317Z,8.70
2018-09-04T18:45:49.363Z,21.17
2018-09-04T18:48:16.785Z,10.18
2018-09-04T18:50:44.044Z,9.73
2018-09-04T18:53:11.689Z,10.13
2018-09-04T18:55:39.044Z,11.05
2018-09-04T18:58:06.655Z,10.68
2018-09-04T19:00:33.866Z,11.40
2018-09-04T19:03:01.281Z,10.75
2018-09-04T19:05:28.554Z,10.85
2018-09-04T19:07:55.945Z,10.85
2018-09-04T19:10:24.544Z,10.40
2018-09-04T19:12:52.997Z,10.15
2018-09-04T19:15:20.366Z,10.53
2018-09-04T19:17:47.665Z,11.00
2018-09-04T19:20:17.653Z,10.80
2018-09-04T19:22:45.077Z,11.30
2018-09-04T19:25:12.934Z,11.30
2018-09-04T19:27:40.436Z,11.03
2018-09-04T19:30:08.478Z,11.73
2018-09-04T19:32:35.471Z,13.03
2018-09-04T19:35:02.445Z,10.68
2018-09-04T19:37:30.155Z,11.15
2018-09-04T19:39:57.114Z,11.57
2018-09-04T19:42:24.473Z,11.43
2018-09-04T19:44:51.289Z,11.53
2018-09-04T19:47:18.607Z,11.65
2018-09-04T19:49:45.696Z,11.35
2018-09-04T19:52:12.769Z,11.93
2018-09-04T19:54:39.905Z,12.13
2018-09-04T19:57:06.889Z,11.57
2018-09-04T19:59:33.876Z,11.80
2018-09-04T20:02:00.842Z,11.22
2018-09-04T20:04:27.973Z,11.17
2018-09-04T20:06:54.985Z,10.95
2018-09-04T20:09:21.971Z,11.28
2018-09-04T20:11:49.010Z,10.95
2018-09-04T20:14:15.977Z,13.03
2018-09-04T20:16:42.942Z,11.18
2018-09-04T20:19:09.943Z,11.63
2018-09-04T20:21:36.979Z,12.25
2018-09-04T20:24:03.990Z,12.13
2018-09-04T20:26:30.975Z,11.15
2018-09-04T20:28:57.962Z,12.50
2018-09-04T20:31:24.951Z,12.07
2018-09-04T20:33:51.970Z,12.53
2018-09-04T20:36:18.983Z,12.07
2018-09-04T20:38:46.273Z,12.20
2018-09-04T20:41:13.462Z,11.53
2018-09-04T20:43:40.451Z,12.27
2018-09-04T20:46:07.844Z,13.20
2018-09-04T20:48:34.474Z,13.28
2018-09-04T20:51:01.521Z,13.30
2018-09-04T20:53:28.487Z,12.93
2018-09-04T20:55:56.904Z,13.05
2018-09-04T20:58:35.696Z,13.20
2018-09-04T21:01:14.486Z,13.98
2018-09-04T21:03:53.414Z,13.58
2018-09-04T21:06:32.370Z,13.03
2018-09-04T21:09:19.565Z,13.78
2018-09-04T21:11:46.606Z,13.58
2018-09-04T21:14:13.579Z,13.70
2018-09-04T21:16:40.643Z,13.90
2018-09-04T21:19:07.683Z,13.32
2018-09-04T21:21:34.726Z,13.30
2018-09-04T21:24:01.960Z,13.68
2018-09-04T21:26:28.910Z,13.97
2018-09-04T21:28:55.874Z,13.45
2018-09-04T21:31:22.921Z,13.13
2018-09-04T21:33:49.874Z,14.25
2018-09-04T21:36:16.897Z,14.07
2018-09-04T21:38:43.957Z,13.72
2018-09-04T21:41:11.366Z,14.00
2018-09-04T21:43:38.362Z,13.78
2018-09-04T21:46:05.521Z,14.47
2018-09-04T21:48:32.542Z,14.03
2018-09-04T21:50:59.544Z,13.93
2018-09-04T21:53:26.535Z,14.90
2018-09-04T21:55:53.670Z,13.93
2018-09-04T21:58:20.715Z,14.35
2018-09-04T22:00:47.795Z,14.65
2018-09-04T22:03:14.820Z,14.70
2018-09-04T22:05:41.828Z,14.73
2018-09-04T22:08:08.819Z,14.93
2018-09-04T22:10:35.860Z,15.20
2018-09-04T22:13:03.218Z,14.93
2018-09-04T22:15:30.011Z,16.45
2018-09-04T22:17:57.056Z,14.58
2018-09-04T22:20:24.127Z,15.25
2018-09-04T22:22:51.618Z,15.05
2018-09-04T22:25:18.101Z,15.50
2018-09-04T22:27:45.148Z,15.93
2018-09-04T22:30:12.147Z,15.10
2018-09-04T22:32:39.194Z,15.25
2018-09-04T22:35:06.208Z,15.55
2018-09-04T22:37:33.210Z,15.55
2018-09-04T22:40:00.192Z,15.98
2018-09-04T22:42:27.811Z,15.83
2018-09-04T22:44:54.800Z,16.10
2018-09-04T22:47:21.820Z,15.40
2018-09-04T22:49:54.401Z,15.80
2018-09-04T22:52:28.621Z,16.07
2018-09-04T22:54:57.218Z,16.10
2018-09-04T22:57:24.491Z,15.20
2018-09-04T22:59:51.595Z,16.10
2018-09-04T23:02:18.586Z,16.32
2018-09-04T23:04:45.574Z,16.27
2018-09-04T23:07:12.727Z,16.87
2018-09-04T23:09:39.588Z,16.80
2018-09-04T23:12:06.604Z,16.95
2018-09-04T23:14:33.588Z,17.30
2018-09-04T23:17:00.688Z,17.87
2018-09-04T23:19:27.684Z,17.37
2018-09-04T23:21:54.767Z,16.60
2018-09-04T23:24:21.888Z,16.48
2018-09-04T23:26:48.910Z,16.30
2018-09-04T23:29:16.041Z,16.20
2018-09-04T23:31:43.012Z,16.52
2018-09-04T23:34:10.019Z,15.85
2018-09-04T23:36:37.052Z,16.00
2018-09-04T23:39:04.976Z,16.42
2018-09-04T23:41:31.945Z,16.17
2018-09-04T23:43:59.409Z,16.50
2018-09-04T23:46:26.414Z,16.45
2018-09-04T23:48:53.399Z,16.02
2018-09-04T23:51:20.595Z,17.15
2018-09-04T23:53:47.690Z,17.17
2018-09-04T23:56:14.699Z,16.90
2018-09-04T23:58:41.702Z,16.70
